Time;durP1;ratioP1;P1;durP2;ratioP2;P2;SDS_P1;SDS_P2;PMS_P1;PMS_P2;Temp;Humidity;BMP_temperature;BMP_pressure;BME280_temperature;BME280_humidity;BME280_pressure;Samples;Min_cycle;Max_cycle;Signal;HPM_P1;HPM_P2
2022/10/21 03:58:27;;;;;;;17.62;8.65;;;;;;;3.80;100.00;101214.72;6621834;26;20079;-86
2022/10/21 04:01:30;;;;;;;15.95;9.18;;;;;;;3.79;100.00;101210.34;6635529;26;34017;-85
2022/10/21 04:04:32;;;;;;;18.02;9.27;;;;;;;3.69;100.00;101203.16;6617337;26;32322;-85
2022/10/21 04:07:35;;;;;;;16.05;9.55;;;;;;;3.69;100.00;101200.50;6638727;26;33663;-85
2022/10/21 04:10:38;;;;;;;18.25;9.65;;;;;;;3.69;100.00;101195.19;6634538;26;34657;-85
2022/10/21 04:13:40;;;;;;;14.95;9.30;;;;;;;3.58;100.00;101193.28;6613868;26;33100;-85
2022/10/21 04:16:43;;;;;;;16.30;10.13;;;;;;;3.51;100.00;101195.56;6634455;26;34603;-85
2022/10/21 04:19:49;;;;;;;20.35;10.00;;;;;;;3.51;100.00;101186.69;6634035;26;32601;-84
2022/10/21 04:22:52;;;;;;;20.52;10.45;;;;;;;3.47;100.00;101177.25;6634164;26;34115;-85
2022/10/21 04:25:54;;;;;;;19.40;10.50;;;;;;;3.41;100.00;101181.22;6633949;26;33770;-85
2022/10/21 04:28:57;;;;;;;17.25;9.75;;;;;;;3.36;100.00;101180.69;6634357;26;34194;-84
2022/10/21 04:32:00;;;;;;;17.87;10.20;;;;;;;3.40;100.00;101176.84;6633871;26;34657;-85
2022/10/21 04:35:03;;;;;;;19.73;10.07;;;;;;;3.32;100.00;101184.53;6634168;26;34688;-84
2022/10/21 04:38:05;;;;;;;18.35;9.77;;;;;;;3.30;100.00;101175.81;6635475;26;34065;-85
2022/10/21 04:41:17;;;;;;;18.87;10.30;;;;;;;3.33;100.00;101175.59;6614335;26;33626;-84
2022/10/21 04:44:19;;;;;;;20.08;9.45;;;;;;;3.37;100.00;101171.75;6634755;26;34137;-84
2022/10/21 04:47:22;;;;;;;20.50;10.15;;;;;;;3.38;100.00;101171.63;6634987;26;33958;-85
2022/10/21 04:50:24;;;;;;;17.45;10.02;;;;;;;3.44;100.00;101165.00;6634625;26;34435;-84
2022/10/21 04:53:27;;;;;;;20.83;10.65;;;;;;;3.43;100.00;101157.16;6634392;26;33952;-85
2022/10/21 04:56:30;;;;;;;19.02;10.13;;;;;;;3.51;100.00;101149.44;6635317;26;34898;-84
2022/10/21 04:59:33;;;;;;;16.60;9.52;;;;;;;3.58;100.00;101150.69;6637732;26;34778;-84
2022/10/21 05:02:35;;;;;;;18.52;9.13;;;;;;;3.59;100.00;101147.06;6635784;26;34768;-84
2022/10/21 05:05:39;;;;;;;17.50;10.10;;;;;;;3.66;100.00;101143.00;6637402;26;34206;-84
2022/10/21 05:08:41;;;;;;;15.75;8.77;;;;;;;3.67;100.00;101144.69;6630249;26;32036;-84
2022/10/21 05:11:44;;;;;;;18.02;9.27;;;;;;;3.67;100.00;101155.34;6639986;26;35396;-84
2022/10/21 05:14:47;;;;;;;18.17;10.18;;;;;;;3.71;100.00;101148.81;6646249;26;34956;-84
2022/10/21 05:17:51;;;;;;;21.55;9.82;;;;;;;3.75;100.00;101152.09;6646582;26;34893;-84
2022/10/21 05:20:55;;;;;;;17.50;9.85;;;;;;;3.68;100.00;101162.34;6613137;26;32885;-84
2022/10/21 05:23:57;;;;;;;16.08;8.82;;;;;;;3.73;100.00;101165.53;6633982;26;34889;-84
2022/10/21 05:27:00;;;;;;;15.25;8.82;;;;;;;3.80;100.00;101155.25;6614226;26;33438;-84
2022/10/21 05:30:03;;;;;;;18.52;9.02;;;;;;;3.80;100.00;101152.59;6614315;26;32519;-84
2022/10/21 05:33:06;;;;;;;16.05;9.05;;;;;;;3.81;100.00;101149.00;6633871;26;34430;-84
2022/10/21 05:36:09;;;;;;;19.17;9.13;;;;;;;3.90;100.00;101156.28;6634725;26;34328;-84
2022/10/21 05:39:11;;;;;;;14.10;8.70;;;;;;;3.93;100.00;101139.22;6614624;26;32538;-84
2022/10/21 05:42:14;;;;;;;20.88;10.52;;;;;;;3.97;100.00;101140.69;6616569;26;33715;-84
2022/10/21 05:45:17;;;;;;;17.42;9.27;;;;;;;4.04;100.00;101147.25;6635288;26;34784;-84
2022/10/21 05:48:20;;;;;;;16.05;9.60;;;;;;;4.10;100.00;101162.78;6635606;26;33844;-84
2022/10/21 05:51:25;;;;;;;15.13;9.63;;;;;;;4.19;100.00;101171.88;6637167;26;34376;-84
2022/10/21 05:54:28;;;;;;;16.50;9.77;;;;;;;4.26;100.00;101168.59;6645651;26;33692;-84
2022/10/21 05:57:33;;;;;;;18.08;10.43;;;;;;;4.37;100.00;101151.78;6627990;26;32186;-84
2022/10/21 06:00:36;;;;;;;15.25;9.38;;;;;;;4.47;100.00;101142.09;6643316;26;33687;-84
2022/10/21 06:03:39;;;;;;;18.35;9.32;;;;;;;4.48;100.00;101148.31;6641079;26;34743;-84
2022/10/21 06:06:41;;;;;;;15.70;8.35;;;;;;;4.58;100.00;101159.94;6621586;26;32524;-84
2022/10/21 06:09:44;;;;;;;21.62;9.75;;;;;;;4.82;100.00;101174.97;6641111;26;35498;-88
2022/10/21 06:12:48;;;;;;;18.58;9.95;;;;;;;4.97;100.00;101182.66;6638232;26;34032;-88
2022/10/21 06:15:51;;;;;;;18.17;9.60;;;;;;;5.08;100.00;101203.13;6626710;26;32551;-88
2022/10/21 06:18:53;;;;;;;18.83;9.77;;;;;;;5.13;100.00;101208.94;6628498;26;33750;-87
2022/10/21 06:21:57;;;;;;;19.60;10.07;;;;;;;5.25;100.00;101203.59;6648221;26;34396;-85
2022/10/21 06:25:00;;;;;;;19.58;11.30;;;;;;;5.35;100.00;101201.88;6636041;26;33718;-84
2022/10/21 06:28:03;;;;;;;18.40;10.32;;;;;;;5.45;100.00;101190.34;6637362;26;32626;-84
2022/10/21 06:31:07;;;;;;;17.05;9.40;;;;;;;5.49;100.00;101192.75;6616015;26;33164;-84
2022/10/21 06:34:10;;;;;;;17.77;8.88;;;;;;;5.54;100.00;101191.41;6636260;26;34260;-84
2022/10/21 06:37:13;;;;;;;17.50;9.18;;;;;;;5.65;100.00;101191.38;6615173;26;32590;-84
2022/10/21 06:40:16;;;;;;;16.60;8.43;;;;;;;5.87;100.00;101192.28;6635420;26;34918;-84
2022/10/21 06:43:18;;;;;;;11.20;7.35;;;;;;;5.92;100.00;101192.75;6634695;26;34414;-84
2022/10/21 06:46:21;;;;;;;14.90;7.57;;;;;;;5.91;100.00;101202.59;6614547;26;32588;-84
2022/10/21 06:49:24;;;;;;;15.73;8.55;;;;;;;6.04;100.00;101213.13;6614348;26;33097;-84
2022/10/21 06:52:26;;;;;;;19.05;9.02;;;;;;;6.18;100.00;101208.47;6634409;26;33988;-84
2022/10/21 06:55:29;;;;;;;13.40;8.02;;;;;;;6.22;100.00;101204.56;6635038;26;33771;-84
2022/10/21 06:58:34;;;;;;;14.98;8.40;;;;;;;6.29;100.00;101197.72;6633843;26;34130;-84
2022/10/21 07:01:36;;;;;;;14.90;8.30;;;;;;;6.40;100.00;101194.13;6634374;26;34356;-85
2022/10/21 07:04:59;;;;;;;14.38;8.00;;;;;;;6.32;99.49;101179.59;6634897;26;33838;-84
2022/10/21 07:08:01;;;;;;;19.92;8.65;;;;;;;6.46;100.00;101183.72;6637723;26;34148;-84
2022/10/21 07:11:05;;;;;;;12.85;7.55;;;;;;;6.76;99.40;101168.72;6635166;26;33899;-84
2022/10/21 07:14:08;;;;;;;15.93;7.90;;;;;;;6.97;95.65;101169.50;6634946;26;33575;-84
2022/10/21 07:17:11;;;;;;;17.37;7.50;;;;;;;7.16;94.83;101175.91;6634741;26;34641;-84
2022/10/21 07:20:13;;;;;;;12.18;7.50;;;;;;;7.35;94.55;101178.66;6635250;26;33725;-84
2022/10/21 07:23:17;;;;;;;12.82;7.68;;;;;;;7.70;91.54;101183.50;6634295;26;34656;-84
2022/10/21 07:26:20;;;;;;;16.17;8.93;;;;;;;7.87;88.69;101179.28;6614446;26;33331;-84
2022/10/21 07:29:23;;;;;;;17.58;8.70;;;;;;;8.04;88.48;101180.38;6614887;26;32722;-84
2022/10/21 07:32:26;;;;;;;14.68;7.45;;;;;;;8.09;86.64;101183.50;6614807;26;33242;-84
2022/10/21 07:35:28;;;;;;;14.38;7.53;;;;;;;8.17;85.69;101199.75;6633281;26;34163;-84
2022/10/21 07:38:31;;;;;;;13.18;7.50;;;;;;;8.31;83.95;101193.09;6614627;26;33230;-85
2022/10/21 07:41:37;;;;;;;11.98;7.35;;;;;;;8.40;81.34;101202.16;6635127;26;34052;-85
2022/10/21 07:44:40;;;;;;;12.07;7.20;;;;;;;8.43;82.30;101187.62;6635615;26;33865;-86
2022/10/21 07:47:43;;;;;;;13.77;8.32;;;;;;;8.48;80.94;101188.00;6639581;26;33940;-83
2022/10/21 07:50:45;;;;;;;10.75;7.68;;;;;;;8.66;82.23;101180.06;6656259;26;35082;-84
2022/10/21 07:53:51;;;;;;;10.88;7.25;;;;;;;8.73;79.56;101175.81;6646471;26;35348;-83
2022/10/21 07:56:53;;;;;;;10.32;6.30;;;;;;;8.85;80.13;101172.78;6614452;26;32953;-84
2022/10/21 07:59:56;;;;;;;12.48;6.80;;;;;;;9.08;78.18;101175.94;6634544;26;34115;-84
2022/10/21 08:02:59;;;;;;;11.77;6.20;;;;;;;9.31;77.84;101173.72;6632888;26;33635;-84
2022/10/21 08:06:02;;;;;;;12.10;7.37;;;;;;;9.42;74.88;101161.91;6613626;26;32472;-84
2022/10/21 08:09:05;;;;;;;9.18;6.18;;;;;;;9.50;76.00;101166.50;6634264;26;34039;-84
2022/10/21 08:12:08;;;;;;;15.95;6.70;;;;;;;9.13;74.91;101159.37;6634103;26;34157;-84
2022/10/21 08:15:16;;;;;;;9.93;6.55;;;;;;;9.16;76.04;101137.59;6634332;26;34582;-88
2022/10/21 08:18:20;;;;;;;13.73;7.70;;;;;;;9.23;75.31;101136.00;6634249;26;33883;-88
2022/10/21 08:21:23;;;;;;;14.87;7.07;;;;;;;9.22;76.72;101136.16;6634939;26;33647;-89
2022/10/21 08:24:27;;;;;;;12.90;7.20;;;;;;;9.31;75.62;101133.41;6614351;26;34311;-89
2022/10/21 08:27:29;;;;;;;12.93;7.30;;;;;;;9.36;74.51;101129.41;6635148;26;34132;-85
2022/10/21 08:30:32;;;;;;;11.35;6.90;;;;;;;9.57;74.13;101127.28;6634132;26;34205;-84
2022/10/21 08:33:36;;;;;;;14.48;6.97;;;;;;;9.75;72.57;101114.69;6635370;26;33967;-86
2022/10/21 08:36:39;;;;;;;9.88;6.12;;;;;;;9.88;71.85;101125.03;6622968;26;34492;-86
2022/10/21 08:39:41;;;;;;;11.95;6.37;;;;;;;9.96;70.44;101118.91;6640005;26;33700;-85
2022/10/21 08:42:45;;;;;;;10.95;6.20;;;;;;;10.11;70.46;101122.72;6638314;26;33940;-85
2022/10/21 08:45:53;;;;;;;10.13;5.90;;;;;;;10.41;70.52;101118.75;6634698;26;34841;-85
2022/10/21 08:49:06;;;;;;;11.50;5.85;;;;;;;10.47;69.71;101114.59;6635455;26;33922;-86
2022/10/21 08:52:13;;;;;;;9.18;6.03;;;;;;;10.74;70.67;101112.72;6635258;26;34629;-85
2022/10/21 08:55:19;;;;;;;7.93;5.60;;;;;;;10.92;69.21;101097.31;6634378;26;34618;-86
2022/10/21 08:58:23;;;;;;;11.43;6.18;;;;;;;11.18;65.96;101096.38;6612610;26;32787;-85
2022/10/21 09:02:11;;;;;;;10.07;6.50;;;;;;;11.33;67.11;101092.03;6613846;26;32880;-86
2022/10/21 09:05:19;;;;;;;9.70;6.47;;;;;;;11.59;65.21;101081.13;6503949;26;33114;-85
2022/10/21 09:08:48;;;;;;;11.73;6.03;;;;;;;12.00;63.65;101071.22;6612373;26;33431;-86
2022/10/21 09:12:16;;;;;;;11.98;5.55;;;;;;;12.33;62.13;101063.06;6612712;26;33356;-86
2022/10/21 09:15:47;;;;;;;10.95;4.40;;;;;;;12.83;60.50;101072.66;6632680;26;33536;-86
2022/10/21 09:18:59;;;;;;;9.00;3.60;;;;;;;13.04;57.68;101060.41;6618617;26;33338;-86
2022/10/21 09:22:13;;;;;;;5.57;3.62;;;;;;;13.03;56.47;101064.16;6632396;26;34732;-86
2022/10/21 09:25:58;;;;;;;5.78;3.40;;;;;;;13.02;56.75;101054.34;6612584;26;32570;-86
2022/10/21 09:29:12;;;;;;;4.75;3.40;;;;;;;12.99;55.83;101058.25;6632582;26;34829;-86
2022/10/21 09:32:22;;;;;;;7.87;4.12;;;;;;;12.88;55.22;101064.03;6612841;26;33402;-86
2022/10/21 09:35:33;;;;;;;9.85;3.90;;;;;;;13.04;55.00;101060.41;6614684;26;32759;-86
2022/10/21 09:38:51;;;;;;;4.18;3.35;;;;;;;13.07;53.95;101054.66;6633835;26;34029;-86
2022/10/21 09:41:57;;;;;;;3.62;3.10;;;;;;;13.29;53.07;101044.94;6631899;26;33684;-86
2022/10/21 09:45:14;;;;;;;4.70;3.78;;;;;;;13.29;53.17;101034.94;6632067;26;34152;-90
2022/10/21 09:48:23;;;;;;;6.05;4.00;;;;;;;13.39;52.81;101027.41;6631658;26;33665;-86
2022/10/21 09:51:38;;;;;;;7.65;3.85;;;;;;;13.12;53.89;101022.53;6632093;26;34427;-86
2022/10/21 09:54:42;;;;;;;5.75;3.60;;;;;;;13.52;52.77;101012.47;6612239;26;32379;-86
2022/10/21 09:57:52;;;;;;;4.15;3.33;;;;;;;13.43;51.66;101018.97;6624546;26;223246;-86
2022/10/21 10:00:56;;;;;;;6.65;3.42;;;;;;;13.30;52.62;101012.28;6633795;26;33879;-86
2022/10/21 10:03:58;;;;;;;4.07;3.03;;;;;;;12.99;53.93;101009.59;6635103;26;33738;-85
2022/10/21 10:07:25;;;;;;;7.03;3.00;;;;;;;12.74;53.56;101000.78;6633119;26;34205;-86
2022/10/21 10:10:31;;;;;;;5.43;3.37;;;;;;;12.55;53.59;101001.19;6634030;26;33310;-86
2022/10/21 10:13:36;;;;;;;4.32;3.20;;;;;;;12.55;53.79;100993.97;6644937;26;33688;-86
2022/10/21 10:16:39;;;;;;;5.37;3.17;;;;;;;12.79;53.40;100987.59;6646258;26;34475;-87
2022/10/21 10:19:41;;;;;;;4.87;3.40;;;;;;;12.74;54.29;100991.84;6649760;26;33801;-87
2022/10/21 10:23:07;;;;;;;8.38;3.62;;;;;;;13.05;54.13;100991.84;6640380;26;34270;-86
2022/10/21 10:26:15;;;;;;;7.25;4.50;;;;;;;13.01;52.74;100983.22;6618364;26;33092;-86
2022/10/21 10:29:25;;;;;;;9.43;4.47;;;;;;;12.79;53.49;100981.34;6636951;26;34087;-86
2022/10/21 10:32:33;;;;;;;5.57;3.62;;;;;;;13.07;52.46;100968.97;6622433;26;32489;-86
2022/10/21 10:35:37;;;;;;;3.75;3.28;;;;;;;13.04;52.13;100968.50;6627097;26;34210;-87
2022/10/21 10:38:51;;;;;;;4.32;3.40;;;;;;;13.35;51.80;100969.31;6639023;26;34458;-87
2022/10/21 10:41:55;;;;;;;9.48;3.22;;;;;;;13.54;52.05;100965.28;6636947;26;34671;-87
2022/10/21 10:45:12;;;;;;;3.92;3.10;;;;;;;13.90;51.46;100947.50;6639015;26;35093;-87
2022/10/21 10:48:41;;;;;;;3.33;2.90;;;;;;;14.01;50.02;100952.44;6618667;26;32545;-86
2022/10/21 10:52:06;;;;;;;6.05;3.28;;;;;;;14.02;48.57;100940.59;6638976;26;34082;-86
2022/10/21 10:55:09;;;;;;;5.18;2.97;;;;;;;14.15;48.46;100923.69;6616295;26;33252;-87
2022/10/21 10:58:12;;;;;;;3.67;3.10;;;;;;;14.25;49.20;100916.97;6635743;26;33656;-87
2022/10/21 11:01:26;;;;;;;6.80;3.17;;;;;;;14.29;48.18;100920.12;6614159;26;32955;-87
2022/10/21 11:04:40;;;;;;;;;;;;;;;14.70;48.11;100915.03;6631784;26;33940;-86
2022/10/21 11:07:47;;;;;;;6.05;3.17;;;;;;;14.55;47.72;100889.00;6634529;26;34300;-86
2022/10/21 11:10:59;;;;;;;5.03;3.05;;;;;;;14.73;46.53;100895.66;6612977;26;33872;-87
2022/10/21 11:14:03;;;;;;;3.20;2.90;;;;;;;14.25;46.92;100905.31;6633636;26;34350;-86
2022/10/21 11:17:11;;;;;;;4.68;2.67;;;;;;;14.16;47.88;100893.72;6613902;26;32631;-87
2022/10/21 11:20:32;;;;;;;4.85;3.10;;;;;;;14.09;48.05;100889.25;6635810;26;34589;-86
2022/10/21 11:23:56;;;;;;;4.28;3.10;;;;;;;14.32;47.99;100891.84;6635103;26;34129;-89
2022/10/21 11:27:37;;;;;;;7.15;3.75;;;;;;;14.27;47.53;100879.72;6618627;26;34061;-85
2022/10/21 11:30:40;;;;;;;10.68;3.62;;;;;;;14.36;48.62;100874.16;6620283;26;32320;-85
2022/10/21 11:34:00;;;;;;;4.82;2.83;;;;;;;13.79;49.26;100884.69;6646812;26;33691;-85
2022/10/21 11:37:15;;;;;;;7.70;3.20;;;;;;;13.89;49.63;100878.16;6636468;26;33719;-85
2022/10/21 11:40:31;;;;;;;8.20;3.30;;;;;;;13.72;50.71;100874.81;6616222;26;32969;-85
2022/10/21 11:44:05;;;;;;;8.00;3.40;;;;;;;13.65;49.96;100857.63;6634773;26;33934;-85
2022/10/21 11:47:23;;;;;;;5.72;3.20;;;;;;;13.45;50.28;100847.34;6635058;26;34687;-85
2022/10/21 11:50:52;;;;;;;4.93;2.95;;;;;;;13.55;49.60;100839.81;6615295;26;33553;-85
2022/10/21 11:54:13;;;;;;;4.50;3.00;;;;;;;13.49;50.14;100847.84;6635996;26;33634;-85
2022/10/21 11:57:51;;;;;;;5.15;3.00;;;;;;;13.41;49.65;100843.34;6637881;26;33578;-86
2022/10/21 12:01:16;;;;;;;5.72;2.92;;;;;;;13.61;48.72;100835.53;6612801;26;33429;-85
2022/10/21 12:04:48;;;;;;;3.65;2.72;;;;;;;13.58;49.23;100820.50;6614510;26;32695;-86
2022/10/21 12:08:20;;;;;;;5.25;3.00;;;;;;;13.61;49.21;100812.00;6625262;26;34038;-85
2022/10/21 12:11:28;;;;;;;5.53;2.97;;;;;;;13.74;49.51;100814.03;6634565;26;34520;-85
2022/10/21 12:14:39;;;;;;;4.20;2.80;;;;;;;13.85;50.75;100812.72;6634706;26;33552;-89
2022/10/21 12:17:44;;;;;;;4.37;3.17;;;;;;;13.68;50.22;100803.13;6613633;26;32690;-86
2022/10/21 12:20:49;;;;;;;4.25;3.22;;;;;;;13.92;48.69;100801.97;6637546;26;33952;-86
2022/10/21 12:24:12;;;;;;;5.47;3.05;;;;;;;13.64;47.75;100807.25;6637988;26;34567;-85
2022/10/21 12:27:28;;;;;;;3.70;2.90;;;;;;;13.52;47.69;100806.87;6613996;26;32523;-85
2022/10/21 12:30:49;;;;;;;3.95;2.75;;;;;;;13.50;47.93;100798.09;6614068;26;32439;-85
2022/10/21 12:33:52;;;;;;;5.07;2.85;;;;;;;13.50;48.28;100803.53;6634613;26;34977;-85
2022/10/21 12:36:56;;;;;;;3.42;3.08;;;;;;;13.48;48.14;100800.16;6616328;26;32160;-84
2022/10/21 12:40:13;;;;;;;6.22;3.00;;;;;;;13.34;48.70;100796.44;6640817;26;34650;-85
2022/10/21 12:43:27;;;;;;;7.55;3.28;;;;;;;13.37;48.61;100793.37;6637777;26;33788;-85
2022/10/21 12:46:36;;;;;;;5.32;2.78;;;;;;;13.28;48.24;100787.19;6613550;26;34081;-85
2022/10/21 12:49:42;;;;;;;7.75;3.17;;;;;;;13.37;47.75;100805.00;6633997;26;33862;-85
2022/10/21 12:52:46;;;;;;;4.80;3.08;;;;;;;13.20;48.29;100794.53;6635968;26;33649;-85
2022/10/21 12:55:53;;;;;;;10.73;2.85;;;;;;;13.19;48.95;100782.84;6635764;26;33924;-85
2022/10/21 12:59:04;;;;;;;10.07;3.10;;;;;;;13.08;49.53;100786.03;6639746;26;33681;-85
2022/10/21 13:02:08;;;;;;;4.55;3.03;;;;;;;12.97;50.14;100781.91;6621651;26;32529;-85
2022/10/21 13:05:11;;;;;;;5.55;3.17;;;;;;;12.84;50.42;100777.13;6635636;26;34735;-85
2022/10/21 13:08:21;;;;;;;5.22;3.17;;;;;;;13.01;49.50;100776.97;6635629;26;35010;-88
2022/10/21 13:11:33;;;;;;;10.10;3.33;;;;;;;13.01;50.09;100782.37;6615106;26;33922;-89
2022/10/21 13:14:49;;;;;;;5.65;3.08;;;;;;;12.87;49.70;100771.34;6651679;26;33758;-86
2022/10/21 13:17:54;;;;;;;7.43;3.08;;;;;;;12.88;50.02;100764.09;6654701;26;35432;-85
2022/10/21 13:21:00;;;;;;;4.55;3.47;;;;;;;13.00;50.90;100759.06;6626753;26;32732;-85
2022/10/21 13:24:05;;;;;;;4.25;3.03;;;;;;;12.83;51.63;100771.91;6642384;26;35082;-86
2022/10/21 13:27:31;;;;;;;4.30;3.00;;;;;;;12.84;51.12;100750.09;6616653;26;32534;-85
2022/10/21 13:30:37;;;;;;;4.93;3.20;;;;;;;12.83;51.63;100743.00;6616301;26;32498;-87
2022/10/21 13:33:51;;;;;;;7.72;3.35;;;;;;;12.74;51.82;100746.81;6637328;26;34527;-86
2022/10/21 13:36:55;;;;;;;6.53;3.58;;;;;;;12.82;51.63;100748.59;6637496;26;34852;-85
2022/10/21 13:40:02;;;;;;;6.30;3.55;;;;;;;12.80;52.51;100747.94;6640939;26;35393;-85
2022/10/21 13:43:14;;;;;;;4.32;3.17;;;;;;;12.76;52.10;100741.25;6638241;26;33850;-86
2022/10/21 13:46:22;;;;;;;6.22;3.15;;;;;;;12.69;53.24;100741.09;6616058;26;32615;-86
2022/10/21 13:49:27;;;;;;;4.78;3.28;;;;;;;12.82;52.58;100740.50;6638401;26;34066;-85
2022/10/21 13:52:30;;;;;;;4.75;3.08;;;;;;;12.75;53.04;100734.12;6640889;26;34152;-85
2022/10/21 13:55:36;;;;;;;7.82;3.05;;;;;;;12.84;52.52;100736.59;6616521;26;32723;-85
2022/10/21 13:58:39;;;;;;;7.97;3.30;;;;;;;12.93;52.13;100721.16;6637266;26;34188;-86
2022/10/21 14:01:53;;;;;;;4.30;3.05;;;;;;;12.88;51.47;100723.56;6639852;26;34086;-86
2022/10/21 14:04:56;;;;;;;5.20;3.25;;;;;;;12.82;51.86;100722.41;6647068;26;33953;-84
2022/10/21 14:07:59;;;;;;;7.72;3.25;;;;;;;12.92;51.44;100717.56;6638758;26;34142;-86
2022/10/21 14:11:11;;;;;;;6.80;3.10;;;;;;;12.82;51.97;100714.31;6614471;26;32204;-90
2022/10/21 14:14:17;;;;;;;6.22;3.35;;;;;;;12.92;52.12;100719.44;6613634;26;32360;-86
2022/10/21 14:17:24;;;;;;;5.28;3.10;;;;;;;12.87;51.71;100711.91;6634819;26;34276;-86
2022/10/21 14:20:32;;;;;;;6.10;3.40;;;;;;;12.93;52.46;100708.47;6634729;26;34399;-86
2022/10/21 14:23:35;;;;;;;5.50;3.17;;;;;;;12.91;51.76;100701.56;6635528;26;34467;-86
2022/10/21 14:26:44;;;;;;;6.37;3.12;;;;;;;13.01;52.06;100706.69;6633751;26;34196;-86
2022/10/21 14:29:47;;;;;;;3.60;3.10;;;;;;;12.96;51.92;100707.25;6613698;26;32615;-86
2022/10/21 14:32:51;;;;;;;5.57;3.20;;;;;;;12.91;51.85;100699.69;6613312;26;33127;-86
2022/10/21 14:36:19;;;;;;;5.75;3.17;;;;;;;12.79;52.23;100697.63;6613788;26;32352;-86
2022/10/21 14:39:22;;;;;;;7.65;3.83;;;;;;;12.85;52.25;100696.91;6633779;26;34268;-86
2022/10/21 14:42:25;;;;;;;6.30;3.03;;;;;;;12.73;52.14;100688.41;6613520;26;32461;-86
2022/10/21 14:45:31;;;;;;;4.78;3.20;;;;;;;12.80;52.66;100683.94;6633942;26;34014;-87
2022/10/21 14:49:02;;;;;;;5.70;3.40;;;;;;;12.64;52.87;100690.34;6633662;26;33665;-86
2022/10/21 14:52:07;;;;;;;5.55;3.62;;;;;;;12.62;53.06;100691.56;6633624;26;34485;-86
2022/10/21 14:55:16;;;;;;;5.50;3.45;;;;;;;12.58;53.39;100687.56;6613920;26;32838;-86
2022/10/21 14:58:24;;;;;;;9.57;3.58;;;;;;;12.50;53.62;100683.06;6634551;26;33961;-85
2022/10/21 15:01:27;;;;;;;7.93;4.07;;;;;;;12.50;53.72;100693.84;6614721;26;34160;-86
2022/10/21 15:04:39;;;;;;;7.00;3.87;;;;;;;12.35;54.89;100690.28;6635175;26;33668;-85
2022/10/21 15:07:41;;;;;;;5.70;4.07;;;;;;;12.37;54.55;100691.78;6638528;26;34249;-86
2022/10/21 15:10:45;;;;;;;5.65;3.85;;;;;;;12.29;55.23;100689.16;6635262;26;34179;-86
2022/10/21 15:13:56;;;;;;;7.78;4.05;;;;;;;12.21;55.52;100687.34;6646925;26;34630;-88
2022/10/21 15:17:07;;;;;;;6.72;3.78;;;;;;;12.11;55.79;100677.81;6635395;26;32967;-87
2022/10/21 15:20:15;;;;;;;10.07;3.75;;;;;;;12.10;56.67;100666.16;6652321;26;34488;-86
2022/10/21 15:23:21;;;;;;;10.52;3.92;;;;;;;11.99;56.37;100661.19;6635392;26;34616;-86
2022/10/21 15:26:32;;;;;;;7.45;4.10;;;;;;;11.89;56.91;100663.31;6639006;26;33973;-86
2022/10/21 15:29:41;;;;;;;7.70;4.22;;;;;;;11.91;57.13;100651.31;6599903;26;33833;-86
2022/10/21 15:32:44;;;;;;;7.50;4.03;;;;;;;11.84;58.05;100647.59;6640292;26;34245;-86
2022/10/21 15:36:08;;;;;;;8.93;4.30;;;;;;;11.77;58.06;100652.88;6649652;26;34182;-86
2022/10/21 15:39:11;;;;;;;6.80;4.37;;;;;;;11.78;58.77;100654.56;6619755;26;33262;-86
2022/10/21 15:42:16;;;;;;;9.25;5.20;;;;;;;11.80;58.91;100657.94;6635304;26;35125;-86
2022/10/21 15:45:21;;;;;;;7.07;4.78;;;;;;;11.75;58.97;100659.47;6615409;26;32751;-86
2022/10/21 15:48:24;;;;;;;9.60;5.07;;;;;;;11.73;59.40;100656.16;6635679;26;34620;-86
2022/10/21 15:51:27;;;;;;;9.13;4.97;;;;;;;11.67;59.72;100659.53;6617137;26;32740;-86
2022/10/21 15:54:30;;;;;;;8.40;4.68;;;;;;;11.64;60.28;100659.88;6615146;26;32733;-86
